Acampo, California
Current Conditions -  °F | °C
As of 1:55 AM on Thursday 18 Dec 2014 (Local Time) from KSCK Reporting Station
Light Rain Light Rain  
Wind Chill: 51°   Ceiling: 6500
Heat Index: 51°   Visibility: 6mi
Dew Point: 49°   Wind: 7mph
Humidity: 92%   Direction: 140°SE
Pressure: 30.1"   Gusts: NA
Location:  38.17°N, 121.28°W
Report Text: KSCK 180955Z AUTO 14006KT 6SM -RA BR OVC065 11/09 A3010 RMK AO2 RAE15B31 SLP191 P0001 T01060094
Loading
Personal Weather Stations






























Interactive Weather Map New forecast layout! Learn more

10-Day Weather Forecast

Advertisements
Track Severe Weather on mobile